Darstellungsparameter: Aktuell verwendete Einstellungen:
Skalierung der Graphiken ... ?
xyx+y,   Skalierungsfaktor:      Skalierung: Modus: x, Faktor: 1
Darstellungszeitraum ... ?
Vom - - bis: - -   Zeitraum: 12.08.2018 - 12.08.2018
Min/Max/Avg-Anzeige ... ?
Zeige MMA aktuell
Zeige MMA Monat
Zeige MMA alles
Zeige --A aktuell
Zeige --A Monat
Zeige --A alles
Keine MMA-Anzeige
MMA:
Keine MMA-Graphiken
MMA-Basis: 12.08.2018 - 12.08.2018
Quicknavigation für Darstellung... ?
Tage:      1T, 2T, 3T, 5T -1T -2T -3T -5T +1T +2T +3T +5T
Wochen: 1W, 2W, 3W -1W -2W -3W +1W +2W +3W
Monate: 1M, 3M, 6M -1M -3M -6M +1M +3M +6M
Jahre:    1J, 3J, 5J, 10J -1J -3J -5J -10J +1J +3J +5J +10J
Nutze für die Darstellung ... ?
Originaldaten oder Mittelwerte auf ...
Stundenbasis Tagesbasis Wochenbasis
Monatsbasis Jahresbasis      Datenbasis: Original-Daten
Darstellen als:
Statistik (Auto) Statistik J:M      Darstellung:
Zur Graphik,    zurück zur Übersicht aller Sensoren.
 
Tabellarische Datenbersicht: ?
 
Sensor: Nr:Datum:Temp:Feuchte:Taupunkt:
Aussen-T/F 1 12-08-2018 00:00:00 13.8 C 74 % 9.25 C
2 12-08-2018 00:05:00 13.7 C 74 % 9.15 C
3 12-08-2018 00:10:00 13.7 C 75 % 9.35 C
4 12-08-2018 00:15:00 13.6 C 75 % 9.26 C
5 12-08-2018 00:20:00 13.4 C 75 % 9.06 C
6 12-08-2018 00:25:00 13.3 C 75 % 8.97 C
7 12-08-2018 00:30:00 13.2 C 76 % 9.07 C
8 12-08-2018 00:35:00 13.1 C 76 % 8.97 C
9 12-08-2018 00:40:00 13 C 77 % 9.07 C
10 12-08-2018 00:45:00 12.9 C 77 % 8.97 C
11 12-08-2018 00:50:00 12.8 C 78 % 9.06 C
12 12-08-2018 00:55:00 12.7 C 77 % 8.78 C
13 12-08-2018 01:00:00 12.7 C 78 % 8.97 C
14 12-08-2018 01:05:00 12.6 C 77 % 8.68 C
15 12-08-2018 01:10:00 12.6 C 77 % 8.68 C
16 12-08-2018 01:15:00 12.6 C 78 % 8.87 C
17 12-08-2018 01:20:00 12.5 C 78 % 8.77 C
18 12-08-2018 01:25:00 12.5 C 78 % 8.77 C
19 12-08-2018 01:30:00 12.4 C 79 % 8.86 C
20 12-08-2018 01:35:00 12.3 C 78 % 8.58 C
21 12-08-2018 01:40:00 12.2 C 78 % 8.48 C
22 12-08-2018 01:45:00 12.1 C 79 % 8.57 C
23 12-08-2018 01:50:00 12 C 79 % 8.48 C
24 12-08-2018 01:55:00 11.9 C 79 % 8.38 C
25 12-08-2018 02:00:00 11.9 C 79 % 8.38 C
Sensor: Nr:Datum:Temp:Feuchte:Taupunkt:
Aussen-T/F 26 12-08-2018 02:05:00 12 C 79 % 8.48 C
27 12-08-2018 02:10:00 11.9 C 79 % 8.38 C
28 12-08-2018 02:15:00 11.9 C 80 % 8.56 C
29 12-08-2018 02:20:00 11.8 C 80 % 8.47 C
30 12-08-2018 02:25:00 11.8 C 80 % 8.47 C
31 12-08-2018 02:30:00 11.7 C 81 % 8.55 C
32 12-08-2018 02:35:00 11.6 C 81 % 8.45 C
33 12-08-2018 02:40:00 11.6 C 81 % 8.45 C
34 12-08-2018 02:45:00 11.4 C 81 % 8.26 C
35 12-08-2018 02:50:00 11.4 C 81 % 8.26 C
36 12-08-2018 02:55:00 11.3 C 81 % 8.16 C
37 12-08-2018 03:00:00 11.3 C 80 % 7.98 C
38 12-08-2018 03:05:00 11.1 C 81 % 7.97 C
39 12-08-2018 03:10:00 11.1 C 81 % 7.97 C
40 12-08-2018 03:15:00 11.1 C 82 % 8.15 C
41 12-08-2018 03:20:00 11 C 82 % 8.05 C
42 12-08-2018 03:25:00 10.9 C 82 % 7.95 C
43 12-08-2018 03:30:00 10.8 C 82 % 7.85 C
44 12-08-2018 03:35:00 10.8 C 83 % 8.03 C
45 12-08-2018 03:40:00 10.7 C 83 % 7.93 C
46 12-08-2018 03:45:00 10.7 C 83 % 7.93 C
47 12-08-2018 03:50:00 10.7 C 83 % 7.93 C
48 12-08-2018 03:55:00 10.6 C 83 % 7.84 C
49 12-08-2018 04:00:00 10.5 C 83 % 7.74 C
50 12-08-2018 04:05:00 10.4 C 84 % 7.82 C
Sensor: Nr:Datum:Temp:Feuchte:Taupunkt:
Aussen-T/F 51 12-08-2018 04:10:00 10.4 C 84 % 7.82 C
52 12-08-2018 04:15:00 10.4 C 84 % 7.82 C
53 12-08-2018 04:20:00 10.3 C 84 % 7.72 C
54 12-08-2018 04:25:00 10.3 C 85 % 7.89 C
55 12-08-2018 04:30:00 10.2 C 85 % 7.79 C
56 12-08-2018 04:35:00 10.2 C 85 % 7.79 C
57 12-08-2018 04:40:00 10.1 C 85 % 7.7 C
58 12-08-2018 04:45:00 10.1 C 85 % 7.7 C
59 12-08-2018 04:50:00 10.1 C 85 % 7.7 C
60 12-08-2018 04:55:00 10 C 86 % 7.77 C
61 12-08-2018 05:00:00 9.9 C 86 % 7.67 C
62 12-08-2018 05:05:00 9.9 C 86 % 7.67 C
63 12-08-2018 05:10:00 9.9 C 86 % 7.67 C
64 12-08-2018 05:15:00 9.8 C 86 % 7.57 C
65 12-08-2018 05:20:00 9.8 C 86 % 7.57 C
66 12-08-2018 05:25:00 9.8 C 86 % 7.57 C
67 12-08-2018 05:30:00 9.7 C 86 % 7.47 C
68 12-08-2018 05:35:00 9.7 C 86 % 7.47 C
69 12-08-2018 05:40:00 9.6 C 86 % 7.38 C
70 12-08-2018 05:45:00 9.6 C 87 % 7.55 C
71 12-08-2018 05:50:00 9.6 C 87 % 7.55 C
72 12-08-2018 05:55:00 9.5 C 87 % 7.45 C
73 12-08-2018 06:00:00 9.4 C 87 % 7.35 C
74 12-08-2018 06:05:00 9.3 C 87 % 7.25 C
75 12-08-2018 06:10:00 9.3 C 87 % 7.25 C
Sensor: Nr:Datum:Temp:Feuchte:Taupunkt:
Aussen-T/F 76 12-08-2018 06:15:00 9.3 C 88 % 7.42 C
77 12-08-2018 06:20:00 9.2 C 88 % 7.32 C
78 12-08-2018 06:25:00 9.3 C 88 % 7.42 C
79 12-08-2018 06:30:00 9.3 C 88 % 7.42 C
80 12-08-2018 06:35:00 9.2 C 88 % 7.32 C
81 12-08-2018 06:40:00 9.3 C 88 % 7.42 C
82 12-08-2018 06:45:00 9.3 C 88 % 7.42 C
83 12-08-2018 06:50:00 9.3 C 89 % 7.58 C
84 12-08-2018 06:55:00 9.3 C 89 % 7.58 C
85 12-08-2018 07:00:00 9.4 C 89 % 7.68 C
86 12-08-2018 07:05:00 9.5 C 89 % 7.78 C
87 12-08-2018 07:10:00 9.5 C 89 % 7.78 C
88 12-08-2018 07:15:00 9.6 C 89 % 7.88 C
89 12-08-2018 07:20:00 9.6 C 89 % 7.88 C
90 12-08-2018 07:25:00 9.7 C 89 % 7.98 C
91 12-08-2018 07:30:00 9.8 C 89 % 8.08 C
92 12-08-2018 07:35:00 9.8 C 89 % 8.08 C
93 12-08-2018 07:40:00 9.9 C 89 % 8.17 C
94 12-08-2018 07:45:00 10.1 C 89 % 8.37 C
95 12-08-2018 07:50:00 10.2 C 89 % 8.47 C
96 12-08-2018 07:55:00 10.4 C 89 % 8.67 C
97 12-08-2018 08:00:00 10.5 C 89 % 8.77 C
98 12-08-2018 08:05:00 10.6 C 89 % 8.86 C
99 12-08-2018 08:10:00 10.7 C 89 % 8.96 C
100 12-08-2018 08:15:00 10.8 C 88 % 8.89 C
Sensor: Nr:Datum:Temp:Feuchte:Taupunkt:
Aussen-T/F 101 12-08-2018 08:20:00 10.8 C 88 % 8.89 C
102 12-08-2018 08:25:00 10.8 C 88 % 8.89 C
103 12-08-2018 08:30:00 10.9 C 88 % 8.99 C
104 12-08-2018 08:35:00 10.9 C 88 % 8.99 C
105 12-08-2018 08:40:00 10.9 C 87 % 8.82 C
106 12-08-2018 08:45:00 10.9 C 87 % 8.82 C
107 12-08-2018 08:50:00 10.9 C 87 % 8.82 C
108 12-08-2018 08:55:00 11 C 87 % 8.92 C
109 12-08-2018 09:00:00 11.1 C 87 % 9.02 C
110 12-08-2018 09:05:00 11.1 C 87 % 9.02 C
111 12-08-2018 09:10:00 11.2 C 88 % 9.29 C
112 12-08-2018 09:15:00 11.3 C 88 % 9.39 C
113 12-08-2018 09:20:00 11.3 C 88 % 9.39 C
114 12-08-2018 09:25:00 11.4 C 87 % 9.32 C
115 12-08-2018 09:30:00 11.6 C 87 % 9.51 C
116 12-08-2018 09:35:00 11.7 C 88 % 9.78 C
117 12-08-2018 09:40:00 11.8 C 88 % 9.88 C
118 12-08-2018 09:45:00 12 C 88 % 10.08 C
119 12-08-2018 09:50:00 12.2 C 87 % 10.1 C
120 12-08-2018 09:55:00 12.3 C 86 % 10.03 C
121 12-08-2018 10:00:00 12.6 C 85 % 10.15 C
122 12-08-2018 10:05:00 12.8 C 85 % 10.34 C
123 12-08-2018 10:10:00 13.3 C 84 % 10.66 C
124 12-08-2018 10:15:00 13.7 C 84 % 11.05 C
125 12-08-2018 10:20:00 14 C 83 % 11.16 C
Sensor: Nr:Datum:Temp:Feuchte:Taupunkt:
Aussen-T/F 126 12-08-2018 10:25:00 14.3 C 82 % 11.27 C
127 12-08-2018 10:30:00 14.7 C 79 % 11.1 C
128 12-08-2018 10:35:00 15.1 C 80 % 11.68 C
129 12-08-2018 10:40:00 15.4 C 78 % 11.59 C
130 12-08-2018 10:45:00 15.8 C 79 % 12.17 C
131 12-08-2018 10:50:00 16.1 C 77 % 12.07 C
132 12-08-2018 10:55:00 16.4 C 76 % 12.16 C
133 12-08-2018 11:00:00 16.7 C 75 % 12.25 C
134 12-08-2018 11:05:00 16.9 C 73 % 12.03 C
135 12-08-2018 11:10:00 17.2 C 70 % 11.68 C
136 12-08-2018 11:15:00 17.6 C 69 % 11.85 C
137 12-08-2018 11:20:00 18.1 C 70 % 12.55 C
138 12-08-2018 11:25:00 18.4 C 66 % 11.94 C
139 12-08-2018 11:30:00 18.9 C 64 % 11.95 C
140 12-08-2018 11:35:00 19.2 C 61 % 11.5 C
141 12-08-2018 11:40:00 19.5 C 61 % 11.78 C
142 12-08-2018 11:45:00 19.8 C 57 % 11.04 C
143 12-08-2018 11:50:00 20.1 C 58 % 11.58 C
144 12-08-2018 11:55:00 20.4 C 57 % 11.6 C
145 12-08-2018 12:00:00 20.8 C 55 % 11.43 C
146 12-08-2018 12:05:00 21.1 C 54 % 11.44 C
147 12-08-2018 12:10:00 21.4 C 53 % 11.43 C
148 12-08-2018 12:15:00 21.7 C 52 % 11.42 C
149 12-08-2018 12:20:00 21.8 C 50 % 10.92 C
150 12-08-2018 12:25:00 22 C 51 % 11.4 C
Sensor: Nr:Datum:Temp:Feuchte:Taupunkt:
Aussen-T/F 151 12-08-2018 12:30:00 22.2 C 49 % 10.98 C
152 12-08-2018 12:35:00 22.4 C 49 % 11.17 C
153 12-08-2018 12:40:00 22.6 C 48 % 11.04 C
154 12-08-2018 12:45:00 22.7 C 47 % 10.81 C
155 12-08-2018 12:50:00 22.8 C 47 % 10.91 C
156 12-08-2018 12:55:00 22.9 C 46 % 10.67 C
157 12-08-2018 13:00:00 22.9 C 44 % 10.01 C
158 12-08-2018 13:05:00 23.1 C 44 % 10.19 C
159 12-08-2018 13:10:00 23.3 C 43 % 10.03 C
160 12-08-2018 13:15:00 23.6 C 43 % 10.3 C
161 12-08-2018 13:20:00 23.8 C 41 % 9.76 C
162 12-08-2018 13:25:00 23.9 C 41 % 9.85 C
163 12-08-2018 13:30:00 24.1 C 42 % 10.39 C
164 12-08-2018 13:35:00 24.1 C 41 % 10.03 C
165 12-08-2018 13:40:00 24.3 C 40 % 9.84 C
166 12-08-2018 13:45:00 24.3 C 39 % 9.47 C
167 12-08-2018 13:50:00 24.4 C 39 % 9.56 C
168 12-08-2018 13:55:00 24.6 C 39 % 9.73 C
169 12-08-2018 14:00:00 24.7 C 39 % 9.82 C
170 12-08-2018 14:05:00 24.7 C 38 % 9.44 C
171 12-08-2018 14:10:00 24.8 C 38 % 9.53 C
172 12-08-2018 14:15:00 25 C 37 % 9.31 C
173 12-08-2018 14:20:00 25.1 C 37 % 9.39 C
174 12-08-2018 14:25:00 25.1 C 37 % 9.39 C
175 12-08-2018 14:30:00 25.3 C 37 % 9.57 C
Sensor: Nr:Datum:Temp:Feuchte:Taupunkt:
Aussen-T/F 176 12-08-2018 14:35:00 25.3 C 37 % 9.57 C
177 12-08-2018 14:40:00 25.4 C 37 % 9.66 C
178 12-08-2018 14:45:00 25.7 C 36 % 9.52 C
179 12-08-2018 14:50:00 25.9 C 34 % 8.85 C
180 12-08-2018 14:55:00 26.1 C 34 % 9.02 C
181 12-08-2018 15:00:00 26.2 C 33 % 8.67 C
182 12-08-2018 15:05:00 26.3 C 33 % 8.75 C
183 12-08-2018 15:10:00 26.4 C 32 % 8.39 C
184 12-08-2018 15:15:00 26.8 C 32 % 8.73 C
185 12-08-2018 15:20:00 26.9 C 33 % 9.28 C
186 12-08-2018 15:25:00 27.2 C 32 % 9.08 C
187 12-08-2018 15:30:00 27.4 C 31 % 8.78 C
188 12-08-2018 15:35:00 27.6 C 29 % 7.97 C
189 12-08-2018 15:40:00 27.7 C 30 % 8.56 C
190 12-08-2018 15:45:00 27.9 C 30 % 8.73 C
191 12-08-2018 15:50:00 28.2 C 32 % 9.95 C
192 12-08-2018 15:55:00 28.5 C 30 % 9.25 C
193 12-08-2018 16:00:00 28.8 C 29 % 9 C
194 12-08-2018 16:05:00 29.1 C 29 % 9.26 C
195 12-08-2018 16:10:00 29.1 C 30 % 9.76 C
196 12-08-2018 16:15:00 29.2 C 30 % 9.85 C
197 12-08-2018 16:20:00 29.3 C 29 % 9.43 C
198 12-08-2018 16:25:00 29.3 C 29 % 9.43 C
199 12-08-2018 16:30:00 29.4 C 32 % 10.99 C
200 12-08-2018 16:35:00 29.7 C 30 % 10.28 C
Sensor: Nr:Datum:Temp:Feuchte:Taupunkt:
Aussen-T/F 201 12-08-2018 16:40:00 29.8 C 28 % 9.34 C
202 12-08-2018 16:45:00 29.7 C 29 % 9.77 C
203 12-08-2018 16:50:00 29.4 C 29 % 9.52 C
204 12-08-2018 16:55:00 29.2 C 30 % 9.85 C
205 12-08-2018 17:00:00 29.2 C 31 % 10.34 C
206 12-08-2018 17:05:00 29.4 C 30 % 10.02 C
207 12-08-2018 17:10:00 29.6 C 30 % 10.19 C
208 12-08-2018 17:15:00 29.5 C 28 % 9.08 C
209 12-08-2018 17:20:00 29.4 C 30 % 10.02 C
210 12-08-2018 17:25:00 29.4 C 28 % 9 C
211 12-08-2018 17:30:00 29.3 C 29 % 9.43 C
212 12-08-2018 17:35:00 29.5 C 29 % 9.6 C
213 12-08-2018 17:40:00 29.7 C 31 % 10.77 C
214 12-08-2018 17:45:00 29.6 C 30 % 10.19 C
215 12-08-2018 17:50:00 29.4 C 30 % 10.02 C
216 12-08-2018 17:55:00 29.1 C 30 % 9.76 C
217 12-08-2018 18:00:00 28.9 C 31 % 10.08 C
218 12-08-2018 18:05:00 28.9 C 32 % 10.55 C
219 12-08-2018 18:10:00 29 C 29 % 9.17 C
220 12-08-2018 18:15:00 29 C 35 % 11.99 C
221 12-08-2018 18:20:00 28.8 C 32 % 10.47 C
222 12-08-2018 18:25:00 28.5 C 30 % 9.25 C
223 12-08-2018 18:30:00 28.3 C 40 % 13.41 C
224 12-08-2018 18:35:00 28.2 C 33 % 10.41 C
225 12-08-2018 18:40:00 28 C 38 % 12.36 C
Sensor: Nr:Datum:Temp:Feuchte:Taupunkt:
Aussen-T/F 226 12-08-2018 18:45:00 27.8 C 40 % 12.97 C
227 12-08-2018 18:50:00 27.7 C 43 % 13.99 C
228 12-08-2018 18:55:00 27.6 C 43 % 13.9 C
229 12-08-2018 19:00:00 27.4 C 42 % 13.35 C
230 12-08-2018 19:05:00 27.2 C 45 % 14.24 C
231 12-08-2018 19:10:00 27.2 C 46 % 14.58 C
232 12-08-2018 19:15:00 27.4 C 44 % 14.07 C
233 12-08-2018 19:20:00 27.4 C 44 % 14.07 C
234 12-08-2018 19:25:00 27.3 C 42 % 13.27 C
235 12-08-2018 19:30:00 26.9 C 43 % 13.27 C
236 12-08-2018 19:35:00 26.6 C 43 % 13 C
237 12-08-2018 19:40:00 26.3 C 43 % 12.73 C
238 12-08-2018 19:45:00 25.9 C 44 % 12.72 C
239 12-08-2018 19:50:00 25.5 C 42 % 11.65 C
240 12-08-2018 19:55:00 25.2 C 45 % 12.43 C
241 12-08-2018 20:00:00 24.9 C 44 % 11.81 C
242 12-08-2018 20:05:00 24.7 C 46 % 12.31 C
243 12-08-2018 20:10:00 24.7 C 47 % 12.64 C
244 12-08-2018 20:15:00 24.6 C 47 % 12.54 C
245 12-08-2018 20:20:00 24.6 C 47 % 12.54 C
246 12-08-2018 20:25:00 24.5 C 47 % 12.45 C
247 12-08-2018 20:30:00 24.4 C 47 % 12.36 C
248 12-08-2018 20:35:00 24.2 C 47 % 12.18 C
249 12-08-2018 20:40:00 23.9 C 46 % 11.58 C
250 12-08-2018 20:45:00 23.7 C 47 % 11.73 C
Sensor: Nr:Datum:Temp:Feuchte:Taupunkt:
Aussen-T/F 251 12-08-2018 20:50:00 23.3 C 46 % 11.04 C
252 12-08-2018 20:55:00 23.1 C 47 % 11.18 C
253 12-08-2018 21:00:00 22.8 C 48 % 11.22 C
254 12-08-2018 21:05:00 22.4 C 48 % 10.86 C
255 12-08-2018 21:10:00 22.2 C 50 % 11.29 C
256 12-08-2018 21:15:00 21.9 C 51 % 11.31 C
257 12-08-2018 21:20:00 21.6 C 53 % 11.62 C
258 12-08-2018 21:25:00 21.3 C 53 % 11.34 C
259 12-08-2018 21:30:00 21.1 C 55 % 11.71 C
260 12-08-2018 21:35:00 20.7 C 55 % 11.34 C
261 12-08-2018 21:40:00 20.4 C 57 % 11.6 C
262 12-08-2018 21:45:00 19.9 C 59 % 11.66 C
263 12-08-2018 21:50:00 19.7 C 59 % 11.47 C
264 12-08-2018 21:55:00 19.3 C 60 % 11.35 C
265 12-08-2018 22:00:00 19.1 C 60 % 11.16 C
266 12-08-2018 22:05:00 18.9 C 62 % 11.47 C
267 12-08-2018 22:10:00 18.8 C 61 % 11.13 C
268 12-08-2018 22:15:00 18.7 C 60 % 10.78 C
269 12-08-2018 22:20:00 18.5 C 62 % 11.09 C
270 12-08-2018 22:25:00 18.3 C 63 % 11.14 C
271 12-08-2018 22:30:00 18.1 C 63 % 10.95 C
272 12-08-2018 22:35:00 17.9 C 65 % 11.23 C
273 12-08-2018 22:40:00 17.8 C 65 % 11.14 C
274 12-08-2018 22:45:00 17.7 C 65 % 11.04 C
275 12-08-2018 22:50:00 17.6 C 65 % 10.95 C
Sensor: Nr:Datum:Temp:Feuchte:Taupunkt:
Aussen-T/F 276 12-08-2018 22:55:00 17.6 C 63 % 10.48 C
277 12-08-2018 23:00:00 17.6 C 65 % 10.95 C
278 12-08-2018 23:05:00 17.6 C 66 % 11.18 C
279 12-08-2018 23:10:00 17.4 C 66 % 10.99 C
280 12-08-2018 23:15:00 17.4 C 64 % 10.53 C
281 12-08-2018 23:20:00 17.4 C 66 % 10.99 C
282 12-08-2018 23:25:00 17.3 C 67 % 11.12 C
283 12-08-2018 23:30:00 17.1 C 67 % 10.93 C
284 12-08-2018 23:35:00 16.9 C 67 % 10.74 C
285 12-08-2018 23:40:00 16.8 C 68 % 10.87 C
286 12-08-2018 23:45:00 16.8 C 69 % 11.09 C
287 12-08-2018 23:50:00 16.6 C 70 % 11.11 C
288 12-08-2018 23:55:00 16.4 C 71 % 11.13 C

Legende:
   Min
   Max


Maximal/Minimal-Werte vom 12.08.2018 - 12.08.2018

Sensor Min Max Avg
Temp
(Aussen-T/F)
9.2 °C
12-08-2018  06:20:00
29.8 °C
12-08-2018  16:40:00
18.15 °C
Feuchte
(Aussen-T/F)
28 %
12-08-2018  16:40:00
89 %
12-08-2018  06:50:00
63.07 %
Taupunkt
(Aussen-T/F)
7.25 C
12-08-2018  06:05:00
14.58 C
12-08-2018  19:10:00
9.78 C

Die Daten stammen von einer Davis Vantage Pro 2 Wetter-Station und werden unter Linux mit der Software wview2wettercgi und aufbereitet. Alle Angaben erfolgen ohne Gewähr für ihre Vollständigkeit oder Richtigkeit.
Kontakt: Rainer Krienke krienke@uni-koblenz.de . Meine Webseiten an der Uni Koblenz oder privat.
Version: $Revision: 0.78 $